sensor_id;sensor_type;location;lat;lon;timestamp;P1;durP1;ratioP1;P2;durP2;ratioP2
11731;SDS011;5922;53.734;10.258;2024-03-02T00:00:01;33.43;;;18.77;;
11731;SDS011;5922;53.734;10.258;2024-03-02T00:02:34;28.90;;;18.67;;
11731;SDS011;5922;53.734;10.258;2024-03-02T00:05:15;29.83;;;18.87;;
11731;SDS011;5922;53.734;10.258;2024-03-02T00:07:52;27.93;;;19.00;;
11731;SDS011;5922;53.734;10.258;2024-03-02T00:10:24;29.40;;;19.03;;
11731;SDS011;5922;53.734;10.258;2024-03-02T00:12:54;28.60;;;18.07;;
11731;SDS011;5922;53.734;10.258;2024-03-02T00:15:40;33.70;;;18.00;;
11731;SDS011;5922;53.734;10.258;2024-03-02T00:18:10;29.07;;;18.60;;
11731;SDS011;5922;53.734;10.258;2024-03-02T00:20:40;28.77;;;19.50;;
11731;SDS011;5922;53.734;10.258;2024-03-02T00:23:14;28.80;;;18.60;;
11731;SDS011;5922;53.734;10.258;2024-03-02T00:25:46;26.83;;;19.03;;
11731;SDS011;5922;53.734;10.258;2024-03-02T00:28:26;30.57;;;19.23;;
11731;SDS011;5922;53.734;10.258;2024-03-02T00:30:58;30.53;;;19.67;;
11731;SDS011;5922;53.734;10.258;2024-03-02T00:33:30;30.57;;;18.83;;
11731;SDS011;5922;53.734;10.258;2024-03-02T00:36:04;29.70;;;20.20;;
11731;SDS011;5922;53.734;10.258;2024-03-02T00:38:43;32.13;;;20.17;;
11731;SDS011;5922;53.734;10.258;2024-03-02T00:41:24;29.47;;;18.60;;
11731;SDS011;5922;53.734;10.258;2024-03-02T00:44:00;31.27;;;20.83;;
11731;SDS011;5922;53.734;10.258;2024-03-02T00:46:32;30.37;;;19.73;;
11731;SDS011;5922;53.734;10.258;2024-03-02T00:49:12;32.97;;;19.17;;
11731;SDS011;5922;53.734;10.258;2024-03-02T00:51:54;34.03;;;21.00;;
11731;SDS011;5922;53.734;10.258;2024-03-02T00:54:25;31.23;;;19.67;;
11731;SDS011;5922;53.734;10.258;2024-03-02T00:56:53;28.63;;;20.40;;
11731;SDS011;5922;53.734;10.258;2024-03-02T00:59:21;33.40;;;21.43;;
11731;SDS011;5922;53.734;10.258;2024-03-02T01:01:50;31.93;;;19.33;;
11731;SDS011;5922;53.734;10.258;2024-03-02T01:04:17;29.97;;;20.33;;
11731;SDS011;5922;53.734;10.258;2024-03-02T01:06:45;33.40;;;20.40;;
11731;SDS011;5922;53.734;10.258;2024-03-02T01:09:13;31.23;;;19.90;;
11731;SDS011;5922;53.734;10.258;2024-03-02T01:11:41;32.40;;;21.57;;
11731;SDS011;5922;53.734;10.258;2024-03-02T01:14:09;34.80;;;20.43;;
11731;SDS011;5922;53.734;10.258;2024-03-02T01:16:36;31.53;;;20.43;;
11731;SDS011;5922;53.734;10.258;2024-03-02T01:19:05;36.80;;;21.53;;
11731;SDS011;5922;53.734;10.258;2024-03-02T01:21:32;33.77;;;20.40;;
11731;SDS011;5922;53.734;10.258;2024-03-02T01:23:59;30.50;;;20.43;;
11731;SDS011;5922;53.734;10.258;2024-03-02T01:26:27;31.67;;;20.63;;
11731;SDS011;5922;53.734;10.258;2024-03-02T01:28:55;32.50;;;21.40;;
11731;SDS011;5922;53.734;10.258;2024-03-02T01:31:23;37.00;;;21.43;;
11731;SDS011;5922;53.734;10.258;2024-03-02T01:33:50;32.70;;;20.70;;
11731;SDS011;5922;53.734;10.258;2024-03-02T01:36:19;34.27;;;20.80;;
11731;SDS011;5922;53.734;10.258;2024-03-02T01:38:46;31.53;;;19.97;;
11731;SDS011;5922;53.734;10.258;2024-03-02T01:41:13;32.53;;;20.97;;
11731;SDS011;5922;53.734;10.258;2024-03-02T01:43:41;32.87;;;19.93;;
11731;SDS011;5922;53.734;10.258;2024-03-02T01:46:08;29.33;;;19.70;;
11731;SDS011;5922;53.734;10.258;2024-03-02T01:48:35;36.67;;;21.70;;
11731;SDS011;5922;53.734;10.258;2024-03-02T01:51:03;29.73;;;20.83;;
11731;SDS011;5922;53.734;10.258;2024-03-02T01:53:33;30.00;;;20.07;;
11731;SDS011;5922;53.734;10.258;2024-03-02T01:56:00;32.77;;;20.87;;
11731;SDS011;5922;53.734;10.258;2024-03-02T01:58:27;31.43;;;20.67;;
11731;SDS011;5922;53.734;10.258;2024-03-02T02:00:55;34.80;;;20.27;;
11731;SDS011;5922;53.734;10.258;2024-03-02T02:03:22;30.50;;;20.10;;
11731;SDS011;5922;53.734;10.258;2024-03-02T02:05:49;36.20;;;20.83;;
11731;SDS011;5922;53.734;10.258;2024-03-02T02:08:16;32.50;;;19.97;;
11731;SDS011;5922;53.734;10.258;2024-03-02T02:10:45;33.07;;;21.87;;
11731;SDS011;5922;53.734;10.258;2024-03-02T02:13:13;32.70;;;21.37;;
11731;SDS011;5922;53.734;10.258;2024-03-02T02:15:40;31.93;;;19.97;;
11731;SDS011;5922;53.734;10.258;2024-03-02T02:18:07;32.67;;;21.03;;
11731;SDS011;5922;53.734;10.258;2024-03-02T02:20:34;33.57;;;21.90;;
11731;SDS011;5922;53.734;10.258;2024-03-02T02:23:04;31.07;;;20.80;;
11731;SDS011;5922;53.734;10.258;2024-03-02T02:25:33;31.77;;;21.30;;
11731;SDS011;5922;53.734;10.258;2024-03-02T02:28:00;31.10;;;20.33;;
11731;SDS011;5922;53.734;10.258;2024-03-02T02:30:28;29.80;;;20.57;;
11731;SDS011;5922;53.734;10.258;2024-03-02T02:32:56;30.20;;;20.83;;
11731;SDS011;5922;53.734;10.258;2024-03-02T02:35:23;31.93;;;21.27;;
11731;SDS011;5922;53.734;10.258;2024-03-02T02:37:51;34.57;;;20.97;;
11731;SDS011;5922;53.734;10.258;2024-03-02T02:40:20;33.30;;;21.73;;
11731;SDS011;5922;53.734;10.258;2024-03-02T02:42:48;32.17;;;20.23;;
11731;SDS011;5922;53.734;10.258;2024-03-02T02:45:17;29.50;;;20.10;;
11731;SDS011;5922;53.734;10.258;2024-03-02T02:47:44;30.57;;;20.00;;
11731;SDS011;5922;53.734;10.258;2024-03-02T02:50:11;30.03;;;20.60;;
11731;SDS011;5922;53.734;10.258;2024-03-02T02:52:39;29.77;;;21.23;;
11731;SDS011;5922;53.734;10.258;2024-03-02T02:55:08;30.37;;;19.77;;
11731;SDS011;5922;53.734;10.258;2024-03-02T02:57:37;33.87;;;21.33;;
11731;SDS011;5922;53.734;10.258;2024-03-02T03:00:05;34.33;;;21.23;;
11731;SDS011;5922;53.734;10.258;2024-03-02T03:02:35;30.67;;;20.23;;
11731;SDS011;5922;53.734;10.258;2024-03-02T03:05:02;35.47;;;21.70;;
11731;SDS011;5922;53.734;10.258;2024-03-02T03:07:31;31.47;;;20.93;;
11731;SDS011;5922;53.734;10.258;2024-03-02T03:09:58;29.67;;;20.77;;
11731;SDS011;5922;53.734;10.258;2024-03-02T03:12:26;31.40;;;19.93;;
11731;SDS011;5922;53.734;10.258;2024-03-02T03:14:55;31.30;;;20.47;;
11731;SDS011;5922;53.734;10.258;2024-03-02T03:17:22;31.80;;;20.47;;
11731;SDS011;5922;53.734;10.258;2024-03-02T03:19:49;29.77;;;19.33;;
11731;SDS011;5922;53.734;10.258;2024-03-02T03:22:17;31.17;;;19.57;;
11731;SDS011;5922;53.734;10.258;2024-03-02T03:24:44;28.57;;;18.50;;
11731;SDS011;5922;53.734;10.258;2024-03-02T03:27:11;30.90;;;20.50;;
11731;SDS011;5922;53.734;10.258;2024-03-02T03:29:39;31.90;;;19.90;;
11731;SDS011;5922;53.734;10.258;2024-03-02T03:32:07;31.23;;;20.40;;
11731;SDS011;5922;53.734;10.258;2024-03-02T03:34:35;38.60;;;20.87;;
11731;SDS011;5922;53.734;10.258;2024-03-02T03:37:02;30.53;;;19.77;;
11731;SDS011;5922;53.734;10.258;2024-03-02T03:39:30;30.20;;;19.93;;
11731;SDS011;5922;53.734;10.258;2024-03-02T03:41:57;30.70;;;19.67;;
11731;SDS011;5922;53.734;10.258;2024-03-02T03:44:24;31.17;;;19.80;;
11731;SDS011;5922;53.734;10.258;2024-03-02T03:46:51;29.23;;;19.70;;
11731;SDS011;5922;53.734;10.258;2024-03-02T03:49:20;33.27;;;20.90;;
11731;SDS011;5922;53.734;10.258;2024-03-02T03:51:47;30.17;;;20.07;;
11731;SDS011;5922;53.734;10.258;2024-03-02T03:54:15;30.10;;;19.37;;
11731;SDS011;5922;53.734;10.258;2024-03-02T03:56:42;30.90;;;19.33;;
11731;SDS011;5922;53.734;10.258;2024-03-02T03:59:09;31.20;;;19.97;;
11731;SDS011;5922;53.734;10.258;2024-03-02T04:01:37;31.93;;;19.50;;
11731;SDS011;5922;53.734;10.258;2024-03-02T04:04:04;30.80;;;19.10;;
11731;SDS011;5922;53.734;10.258;2024-03-02T04:06:33;29.73;;;19.60;;
11731;SDS011;5922;53.734;10.258;2024-03-02T04:09:00;27.63;;;18.40;;
11731;SDS011;5922;53.734;10.258;2024-03-02T04:11:29;33.17;;;19.57;;
11731;SDS011;5922;53.734;10.258;2024-03-02T04:13:56;27.97;;;17.73;;
11731;SDS011;5922;53.734;10.258;2024-03-02T04:16:24;28.23;;;18.97;;
11731;SDS011;5922;53.734;10.258;2024-03-02T04:18:51;26.47;;;18.73;;
11731;SDS011;5922;53.734;10.258;2024-03-02T04:21:19;30.83;;;20.00;;
11731;SDS011;5922;53.734;10.258;2024-03-02T04:23:48;28.63;;;19.17;;
11731;SDS011;5922;53.734;10.258;2024-03-02T04:26:15;30.77;;;20.00;;
11731;SDS011;5922;53.734;10.258;2024-03-02T04:28:47;32.83;;;19.40;;
11731;SDS011;5922;53.734;10.258;2024-03-02T04:31:14;31.13;;;20.37;;
11731;SDS011;5922;53.734;10.258;2024-03-02T04:33:41;28.73;;;19.07;;
11731;SDS011;5922;53.734;10.258;2024-03-02T04:36:09;30.83;;;18.67;;
11731;SDS011;5922;53.734;10.258;2024-03-02T04:38:36;30.27;;;19.30;;
11731;SDS011;5922;53.734;10.258;2024-03-02T04:41:05;29.47;;;20.00;;
11731;SDS011;5922;53.734;10.258;2024-03-02T04:43:32;30.20;;;19.03;;
11731;SDS011;5922;53.734;10.258;2024-03-02T04:45:59;29.10;;;19.50;;
11731;SDS011;5922;53.734;10.258;2024-03-02T04:48:27;29.27;;;19.63;;
11731;SDS011;5922;53.734;10.258;2024-03-02T04:50:54;29.27;;;19.67;;
11731;SDS011;5922;53.734;10.258;2024-03-02T04:53:21;27.97;;;19.33;;
11731;SDS011;5922;53.734;10.258;2024-03-02T04:55:49;30.03;;;20.20;;
11731;SDS011;5922;53.734;10.258;2024-03-02T04:58:54;27.90;;;18.27;;
11731;SDS011;5922;53.734;10.258;2024-03-02T05:01:21;27.83;;;19.13;;
11731;SDS011;5922;53.734;10.258;2024-03-02T05:03:48;27.20;;;18.50;;
11731;SDS011;5922;53.734;10.258;2024-03-02T05:06:16;28.83;;;19.77;;
11731;SDS011;5922;53.734;10.258;2024-03-02T05:08:43;29.90;;;18.23;;
11731;SDS011;5922;53.734;10.258;2024-03-02T05:11:11;28.73;;;18.90;;
11731;SDS011;5922;53.734;10.258;2024-03-02T05:14:11;30.83;;;19.57;;
11731;SDS011;5922;53.734;10.258;2024-03-02T05:16:38;24.63;;;18.07;;
11731;SDS011;5922;53.734;10.258;2024-03-02T05:19:06;24.87;;;18.10;;
11731;SDS011;5922;53.734;10.258;2024-03-02T05:21:34;26.63;;;18.43;;
11731;SDS011;5922;53.734;10.258;2024-03-02T05:24:01;29.97;;;18.63;;
11731;SDS011;5922;53.734;10.258;2024-03-02T05:26:28;28.03;;;18.50;;
11731;SDS011;5922;53.734;10.258;2024-03-02T05:28:55;28.43;;;18.70;;
11731;SDS011;5922;53.734;10.258;2024-03-02T05:34:09;30.27;;;17.80;;
11731;SDS011;5922;53.734;10.258;2024-03-02T05:36:37;25.90;;;17.83;;
11731;SDS011;5922;53.734;10.258;2024-03-02T05:39:04;26.47;;;17.70;;
11731;SDS011;5922;53.734;10.258;2024-03-02T05:41:34;28.90;;;18.67;;
11731;SDS011;5922;53.734;10.258;2024-03-02T05:44:01;28.83;;;19.57;;
11731;SDS011;5922;53.734;10.258;2024-03-02T05:46:28;28.60;;;17.50;;
11731;SDS011;5922;53.734;10.258;2024-03-02T05:48:56;28.13;;;18.03;;
11731;SDS011;5922;53.734;10.258;2024-03-02T05:51:24;28.67;;;17.80;;
11731;SDS011;5922;53.734;10.258;2024-03-02T05:53:51;28.00;;;18.00;;
11731;SDS011;5922;53.734;10.258;2024-03-02T05:56:19;25.97;;;18.17;;
11731;SDS011;5922;53.734;10.258;2024-03-02T05:58:46;27.17;;;18.13;;
11731;SDS011;5922;53.734;10.258;2024-03-02T06:01:25;25.40;;;18.13;;
11731;SDS011;5922;53.734;10.258;2024-03-02T06:03:55;26.67;;;18.30;;
11731;SDS011;5922;53.734;10.258;2024-03-02T06:06:25;26.43;;;17.93;;
11731;SDS011;5922;53.734;10.258;2024-03-02T06:08:52;28.97;;;19.23;;
11731;SDS011;5922;53.734;10.258;2024-03-02T06:11:20;27.20;;;16.60;;
11731;SDS011;5922;53.734;10.258;2024-03-02T06:13:47;30.87;;;18.40;;
11731;SDS011;5922;53.734;10.258;2024-03-02T06:16:14;25.97;;;17.47;;
11731;SDS011;5922;53.734;10.258;2024-03-02T06:18:42;24.67;;;17.20;;
11731;SDS011;5922;53.734;10.258;2024-03-02T06:21:09;25.73;;;17.97;;
11731;SDS011;5922;53.734;10.258;2024-03-02T06:23:38;28.40;;;17.70;;
11731;SDS011;5922;53.734;10.258;2024-03-02T06:26:05;26.20;;;18.10;;
11731;SDS011;5922;53.734;10.258;2024-03-02T06:28:32;30.33;;;19.20;;
11731;SDS011;5922;53.734;10.258;2024-03-02T06:31:00;25.20;;;17.37;;
11731;SDS011;5922;53.734;10.258;2024-03-02T06:33:27;26.10;;;17.73;;
11731;SDS011;5922;53.734;10.258;2024-03-02T06:35:54;27.20;;;19.03;;
11731;SDS011;5922;53.734;10.258;2024-03-02T06:38:22;28.50;;;19.10;;
11731;SDS011;5922;53.734;10.258;2024-03-02T06:40:50;26.57;;;18.03;;
11731;SDS011;5922;53.734;10.258;2024-03-02T06:43:18;27.53;;;18.33;;
11731;SDS011;5922;53.734;10.258;2024-03-02T06:45:48;28.50;;;18.73;;
11731;SDS011;5922;53.734;10.258;2024-03-02T06:48:15;29.67;;;20.03;;
11731;SDS011;5922;53.734;10.258;2024-03-02T06:50:45;26.90;;;18.27;;
11731;SDS011;5922;53.734;10.258;2024-03-02T06:53:13;28.23;;;18.83;;
11731;SDS011;5922;53.734;10.258;2024-03-02T06:55:42;28.93;;;18.87;;
11731;SDS011;5922;53.734;10.258;2024-03-02T06:58:12;30.40;;;19.30;;
11731;SDS011;5922;53.734;10.258;2024-03-02T07:00:40;28.50;;;18.60;;
11731;SDS011;5922;53.734;10.258;2024-03-02T07:03:07;29.37;;;18.60;;
11731;SDS011;5922;53.734;10.258;2024-03-02T07:05:34;28.37;;;19.30;;
11731;SDS011;5922;53.734;10.258;2024-03-02T07:08:02;28.33;;;18.37;;
11731;SDS011;5922;53.734;10.258;2024-03-02T07:10:30;27.87;;;18.50;;
11731;SDS011;5922;53.734;10.258;2024-03-02T07:12:57;28.37;;;17.90;;
11731;SDS011;5922;53.734;10.258;2024-03-02T07:15:26;25.87;;;18.23;;
11731;SDS011;5922;53.734;10.258;2024-03-02T07:18:12;25.77;;;18.93;;
11731;SDS011;5922;53.734;10.258;2024-03-02T07:20:39;30.20;;;18.47;;
11731;SDS011;5922;53.734;10.258;2024-03-02T07:23:06;28.17;;;18.17;;
11731;SDS011;5922;53.734;10.258;2024-03-02T07:25:34;27.90;;;18.60;;
11731;SDS011;5922;53.734;10.258;2024-03-02T07:28:01;29.53;;;17.70;;
11731;SDS011;5922;53.734;10.258;2024-03-02T07:30:30;26.90;;;17.87;;
11731;SDS011;5922;53.734;10.258;2024-03-02T07:32:58;23.57;;;16.90;;
11731;SDS011;5922;53.734;10.258;2024-03-02T07:35:25;24.87;;;17.30;;
11731;SDS011;5922;53.734;10.258;2024-03-02T07:37:53;25.77;;;17.73;;
11731;SDS011;5922;53.734;10.258;2024-03-02T07:40:21;27.07;;;17.10;;
11731;SDS011;5922;53.734;10.258;2024-03-02T07:42:49;25.03;;;17.23;;
11731;SDS011;5922;53.734;10.258;2024-03-02T07:45:16;24.10;;;16.73;;
11731;SDS011;5922;53.734;10.258;2024-03-02T07:47:45;27.50;;;18.00;;
11731;SDS011;5922;53.734;10.258;2024-03-02T07:50:12;26.90;;;17.93;;
11731;SDS011;5922;53.734;10.258;2024-03-02T07:52:40;27.30;;;17.20;;
11731;SDS011;5922;53.734;10.258;2024-03-02T07:55:07;26.70;;;17.20;;
11731;SDS011;5922;53.734;10.258;2024-03-02T07:57:34;32.77;;;17.90;;
11731;SDS011;5922;53.734;10.258;2024-03-02T08:00:02;25.33;;;17.17;;
11731;SDS011;5922;53.734;10.258;2024-03-02T08:02:29;26.27;;;17.60;;
11731;SDS011;5922;53.734;10.258;2024-03-02T08:04:58;24.60;;;17.10;;
11731;SDS011;5922;53.734;10.258;2024-03-02T08:07:26;31.03;;;21.33;;
11731;SDS011;5922;53.734;10.258;2024-03-02T08:09:53;32.53;;;19.80;;
11731;SDS011;5922;53.734;10.258;2024-03-02T08:12:20;28.37;;;17.60;;
11731;SDS011;5922;53.734;10.258;2024-03-02T08:14:48;27.80;;;18.27;;
11731;SDS011;5922;53.734;10.258;2024-03-02T08:17:16;26.40;;;17.83;;
11731;SDS011;5922;53.734;10.258;2024-03-02T08:19:43;26.07;;;17.97;;
11731;SDS011;5922;53.734;10.258;2024-03-02T08:22:14;25.33;;;17.30;;
11731;SDS011;5922;53.734;10.258;2024-03-02T08:24:42;28.07;;;18.10;;
11731;SDS011;5922;53.734;10.258;2024-03-02T08:27:09;25.90;;;17.40;;
11731;SDS011;5922;53.734;10.258;2024-03-02T08:29:37;23.87;;;15.93;;
11731;SDS011;5922;53.734;10.258;2024-03-02T08:32:04;26.43;;;15.90;;
11731;SDS011;5922;53.734;10.258;2024-03-02T08:34:32;23.50;;;16.17;;
11731;SDS011;5922;53.734;10.258;2024-03-02T08:37:00;25.47;;;17.13;;
11731;SDS011;5922;53.734;10.258;2024-03-02T08:39:32;25.10;;;16.30;;
11731;SDS011;5922;53.734;10.258;2024-03-02T08:41:59;24.97;;;16.53;;
11731;SDS011;5922;53.734;10.258;2024-03-02T08:44:26;24.43;;;15.87;;
11731;SDS011;5922;53.734;10.258;2024-03-02T08:46:54;24.93;;;16.47;;
11731;SDS011;5922;53.734;10.258;2024-03-02T08:49:21;25.73;;;17.20;;
11731;SDS011;5922;53.734;10.258;2024-03-02T08:51:48;26.77;;;16.00;;
11731;SDS011;5922;53.734;10.258;2024-03-02T08:54:19;21.27;;;15.10;;
11731;SDS011;5922;53.734;10.258;2024-03-02T08:56:48;22.37;;;15.70;;
11731;SDS011;5922;53.734;10.258;2024-03-02T08:59:15;25.50;;;16.40;;
11731;SDS011;5922;53.734;10.258;2024-03-02T09:01:43;25.07;;;16.47;;
11731;SDS011;5922;53.734;10.258;2024-03-02T09:04:10;22.60;;;15.77;;
11731;SDS011;5922;53.734;10.258;2024-03-02T09:06:38;26.57;;;16.97;;
11731;SDS011;5922;53.734;10.258;2024-03-02T09:09:06;24.50;;;17.47;;
11731;SDS011;5922;53.734;10.258;2024-03-02T09:11:33;23.33;;;15.63;;
11731;SDS011;5922;53.734;10.258;2024-03-02T09:14:02;23.93;;;16.97;;
11731;SDS011;5922;53.734;10.258;2024-03-02T09:16:30;22.37;;;15.63;;
11731;SDS011;5922;53.734;10.258;2024-03-02T09:18:57;23.40;;;16.43;;
11731;SDS011;5922;53.734;10.258;2024-03-02T09:21:25;22.90;;;16.80;;
11731;SDS011;5922;53.734;10.258;2024-03-02T09:23:53;23.63;;;15.50;;
11731;SDS011;5922;53.734;10.258;2024-03-02T09:26:20;19.70;;;14.50;;
11731;SDS011;5922;53.734;10.258;2024-03-02T09:28:49;21.93;;;14.97;;
11731;SDS011;5922;53.734;10.258;2024-03-02T09:31:19;19.63;;;14.73;;
11731;SDS011;5922;53.734;10.258;2024-03-02T09:33:46;21.80;;;14.33;;
11731;SDS011;5922;53.734;10.258;2024-03-02T09:36:17;21.87;;;14.70;;
11731;SDS011;5922;53.734;10.258;2024-03-02T09:38:44;18.83;;;13.70;;
11731;SDS011;5922;53.734;10.258;2024-03-02T09:41:12;19.37;;;13.60;;
11731;SDS011;5922;53.734;10.258;2024-03-02T09:43:46;18.43;;;13.37;;
11731;SDS011;5922;53.734;10.258;2024-03-02T09:46:14;20.73;;;13.00;;
11731;SDS011;5922;53.734;10.258;2024-03-02T09:48:45;19.53;;;14.37;;
11731;SDS011;5922;53.734;10.258;2024-03-02T09:51:12;20.93;;;14.80;;
11731;SDS011;5922;53.734;10.258;2024-03-02T09:53:40;18.87;;;13.07;;
11731;SDS011;5922;53.734;10.258;2024-03-02T09:56:08;18.27;;;13.20;;
11731;SDS011;5922;53.734;10.258;2024-03-02T09:58:35;19.17;;;12.47;;
11731;SDS011;5922;53.734;10.258;2024-03-02T10:01:05;18.73;;;12.77;;
11731;SDS011;5922;53.734;10.258;2024-03-02T10:03:33;20.63;;;14.13;;
11731;SDS011;5922;53.734;10.258;2024-03-02T10:08:45;18.07;;;12.97;;
11731;SDS011;5922;53.734;10.258;2024-03-02T10:11:20;17.63;;;13.00;;
11731;SDS011;5922;53.734;10.258;2024-03-02T10:13:57;16.10;;;11.80;;
11731;SDS011;5922;53.734;10.258;2024-03-02T10:16:33;17.37;;;12.20;;
11731;SDS011;5922;53.734;10.258;2024-03-02T10:19:11;18.60;;;12.83;;
11731;SDS011;5922;53.734;10.258;2024-03-02T10:21:41;17.63;;;12.23;;
11731;SDS011;5922;53.734;10.258;2024-03-02T10:24:10;16.20;;;11.23;;
11731;SDS011;5922;53.734;10.258;2024-03-02T10:26:38;15.07;;;10.37;;
11731;SDS011;5922;53.734;10.258;2024-03-02T10:29:07;14.70;;;10.17;;
11731;SDS011;5922;53.734;10.258;2024-03-02T10:31:36;14.27;;;10.03;;
11731;SDS011;5922;53.734;10.258;2024-03-02T10:34:03;17.73;;;10.60;;
11731;SDS011;5922;53.734;10.258;2024-03-02T10:36:31;13.63;;;10.00;;
11731;SDS011;5922;53.734;10.258;2024-03-02T10:39:00;12.07;;;9.63;;
11731;SDS011;5922;53.734;10.258;2024-03-02T10:41:30;14.40;;;9.77;;
11731;SDS011;5922;53.734;10.258;2024-03-02T10:43:59;15.60;;;10.23;;
11731;SDS011;5922;53.734;10.258;2024-03-02T10:46:29;15.70;;;11.57;;
11731;SDS011;5922;53.734;10.258;2024-03-02T10:48:56;17.10;;;11.97;;
11731;SDS011;5922;53.734;10.258;2024-03-02T10:51:24;16.37;;;10.97;;
11731;SDS011;5922;53.734;10.258;2024-03-02T10:53:52;15.17;;;11.10;;
11731;SDS011;5922;53.734;10.258;2024-03-02T10:56:21;16.77;;;11.63;;
11731;SDS011;5922;53.734;10.258;2024-03-02T10:58:52;15.90;;;11.30;;
11731;SDS011;5922;53.734;10.258;2024-03-02T11:01:22;17.50;;;11.00;;
11731;SDS011;5922;53.734;10.258;2024-03-02T11:03:50;15.83;;;11.60;;
11731;SDS011;5922;53.734;10.258;2024-03-02T11:06:18;17.67;;;11.73;;
11731;SDS011;5922;53.734;10.258;2024-03-02T11:08:46;17.43;;;12.73;;
11731;SDS011;5922;53.734;10.258;2024-03-02T11:11:15;16.47;;;11.53;;
11731;SDS011;5922;53.734;10.258;2024-03-02T11:13:47;15.03;;;11.87;;
11731;SDS011;5922;53.734;10.258;2024-03-02T11:16:18;16.07;;;11.73;;
11731;SDS011;5922;53.734;10.258;2024-03-02T11:18:51;16.27;;;12.63;;
11731;SDS011;5922;53.734;10.258;2024-03-02T11:21:18;21.13;;;12.90;;
11731;SDS011;5922;53.734;10.258;2024-03-02T11:23:46;17.83;;;12.53;;
11731;SDS011;5922;53.734;10.258;2024-03-02T11:26:16;19.57;;;12.93;;
11731;SDS011;5922;53.734;10.258;2024-03-02T11:28:44;19.80;;;13.43;;
11731;SDS011;5922;53.734;10.258;2024-03-02T11:31:11;18.73;;;13.20;;
11731;SDS011;5922;53.734;10.258;2024-03-02T11:33:40;16.53;;;12.90;;
11731;SDS011;5922;53.734;10.258;2024-03-02T11:36:08;20.30;;;13.20;;
11731;SDS011;5922;53.734;10.258;2024-03-02T11:38:35;19.67;;;14.40;;
11731;SDS011;5922;53.734;10.258;2024-03-02T11:41:05;17.07;;;13.47;;
11731;SDS011;5922;53.734;10.258;2024-03-02T11:43:33;23.50;;;14.53;;
11731;SDS011;5922;53.734;10.258;2024-03-02T11:46:04;16.97;;;12.53;;
11731;SDS011;5922;53.734;10.258;2024-03-02T11:48:34;17.57;;;12.80;;
11731;SDS011;5922;53.734;10.258;2024-03-02T11:51:04;15.90;;;12.13;;
11731;SDS011;5922;53.734;10.258;2024-03-02T11:53:31;17.10;;;12.47;;
11731;SDS011;5922;53.734;10.258;2024-03-02T11:56:00;18.30;;;11.87;;
11731;SDS011;5922;53.734;10.258;2024-03-02T11:58:28;14.33;;;11.00;;
11731;SDS011;5922;53.734;10.258;2024-03-02T12:00:55;14.63;;;11.20;;
11731;SDS011;5922;53.734;10.258;2024-03-02T12:03:24;15.50;;;11.50;;
11731;SDS011;5922;53.734;10.258;2024-03-02T12:05:52;19.60;;;11.57;;
11731;SDS011;5922;53.734;10.258;2024-03-02T12:08:21;16.00;;;10.97;;
11731;SDS011;5922;53.734;10.258;2024-03-02T12:10:58;20.07;;;12.13;;
11731;SDS011;5922;53.734;10.258;2024-03-02T12:13:26;14.63;;;11.00;;
11731;SDS011;5922;53.734;10.258;2024-03-02T12:15:54;16.33;;;11.00;;
11731;SDS011;5922;53.734;10.258;2024-03-02T12:18:22;15.67;;;11.13;;
11731;SDS011;5922;53.734;10.258;2024-03-02T12:20:51;15.30;;;11.60;;
11731;SDS011;5922;53.734;10.258;2024-03-02T12:23:23;15.40;;;11.80;;
11731;SDS011;5922;53.734;10.258;2024-03-02T12:25:51;18.10;;;11.87;;
11731;SDS011;5922;53.734;10.258;2024-03-02T12:28:18;17.03;;;11.40;;
11731;SDS011;5922;53.734;10.258;2024-03-02T12:30:46;16.00;;;11.10;;
11731;SDS011;5922;53.734;10.258;2024-03-02T12:33:14;16.93;;;11.97;;
11731;SDS011;5922;53.734;10.258;2024-03-02T12:35:41;17.17;;;11.83;;
11731;SDS011;5922;53.734;10.258;2024-03-02T12:38:09;15.37;;;12.20;;
11731;SDS011;5922;53.734;10.258;2024-03-02T12:40:38;15.33;;;11.67;;
11731;SDS011;5922;53.734;10.258;2024-03-02T12:43:06;17.13;;;11.03;;
11731;SDS011;5922;53.734;10.258;2024-03-02T12:45:33;16.80;;;11.13;;
11731;SDS011;5922;53.734;10.258;2024-03-02T12:48:00;16.93;;;11.87;;
11731;SDS011;5922;53.734;10.258;2024-03-02T12:50:28;18.07;;;11.70;;
11731;SDS011;5922;53.734;10.258;2024-03-02T12:52:55;15.97;;;11.00;;
11731;SDS011;5922;53.734;10.258;2024-03-02T12:55:22;15.70;;;11.23;;
11731;SDS011;5922;53.734;10.258;2024-03-02T12:57:51;15.37;;;11.30;;
11731;SDS011;5922;53.734;10.258;2024-03-02T13:00:19;16.77;;;11.63;;
11731;SDS011;5922;53.734;10.258;2024-03-02T13:02:47;15.50;;;11.57;;
11731;SDS011;5922;53.734;10.258;2024-03-02T13:05:15;15.67;;;11.27;;
11731;SDS011;5922;53.734;10.258;2024-03-02T13:07:42;15.07;;;10.20;;
11731;SDS011;5922;53.734;10.258;2024-03-02T13:10:14;15.37;;;10.17;;
11731;SDS011;5922;53.734;10.258;2024-03-02T13:12:44;17.70;;;10.53;;
11731;SDS011;5922;53.734;10.258;2024-03-02T13:15:13;16.77;;;10.30;;
11731;SDS011;5922;53.734;10.258;2024-03-02T13:17:42;16.73;;;10.30;;
11731;SDS011;5922;53.734;10.258;2024-03-02T13:20:09;13.87;;;10.43;;
11731;SDS011;5922;53.734;10.258;2024-03-02T13:22:39;14.00;;;10.13;;
11731;SDS011;5922;53.734;10.258;2024-03-02T13:25:07;14.27;;;10.63;;
11731;SDS011;5922;53.734;10.258;2024-03-02T13:27:36;11.23;;;9.27;;
11731;SDS011;5922;53.734;10.258;2024-03-02T13:30:04;14.20;;;10.63;;
11731;SDS011;5922;53.734;10.258;2024-03-02T13:32:44;13.53;;;10.67;;
11731;SDS011;5922;53.734;10.258;2024-03-02T14:11:51;11.87;;;8.30;;
11731;SDS011;5922;53.734;10.258;2024-03-02T14:24:04;11.20;;;8.40;;
11731;SDS011;5922;53.734;10.258;2024-03-02T15:01:13;14.43;;;9.83;;
11731;SDS011;5922;53.734;10.258;2024-03-02T15:04:13;11.23;;;8.00;;
11731;SDS011;5922;53.734;10.258;2024-03-02T15:07:09;11.60;;;8.63;;
11731;SDS011;5922;53.734;10.258;2024-03-02T15:10:07;11.90;;;8.63;;
11731;SDS011;5922;53.734;10.258;2024-03-02T15:31:51;10.63;;;8.23;;
11731;SDS011;5922;53.734;10.258;2024-03-02T15:34:21;10.27;;;7.73;;
11731;SDS011;5922;53.734;10.258;2024-03-02T15:36:55;14.50;;;7.97;;
11731;SDS011;5922;53.734;10.258;2024-03-02T15:39:32;11.50;;;7.90;;
11731;SDS011;5922;53.734;10.258;2024-03-02T15:42:01;12.60;;;7.37;;
11731;SDS011;5922;53.734;10.258;2024-03-02T15:44:35;9.17;;;7.50;;
11731;SDS011;5922;53.734;10.258;2024-03-02T15:47:10;9.70;;;7.50;;
11731;SDS011;5922;53.734;10.258;2024-03-02T15:49:44;9.50;;;7.27;;
11731;SDS011;5922;53.734;10.258;2024-03-02T15:52:21;11.10;;;7.67;;
11731;SDS011;5922;53.734;10.258;2024-03-02T15:54:59;10.73;;;7.80;;
11731;SDS011;5922;53.734;10.258;2024-03-02T15:57:51;11.30;;;7.87;;
11731;SDS011;5922;53.734;10.258;2024-03-02T16:00:24;10.80;;;7.50;;
11731;SDS011;5922;53.734;10.258;2024-03-02T16:03:11;10.27;;;7.73;;
11731;SDS011;5922;53.734;10.258;2024-03-02T16:05:50;10.77;;;7.77;;
11731;SDS011;5922;53.734;10.258;2024-03-02T16:08:23;9.67;;;7.90;;
11731;SDS011;5922;53.734;10.258;2024-03-02T16:10:51;11.03;;;8.40;;
11731;SDS011;5922;53.734;10.258;2024-03-02T16:13:20;11.53;;;7.40;;
11731;SDS011;5922;53.734;10.258;2024-03-02T16:15:50;10.03;;;7.50;;
11731;SDS011;5922;53.734;10.258;2024-03-02T16:21:16;10.87;;;7.60;;
11731;SDS011;5922;53.734;10.258;2024-03-02T16:23:45;11.23;;;8.13;;